createdAt,value
2018-01-13T00:02:18.949Z,85.80
2018-01-13T00:04:46.886Z,85.90
2018-01-13T00:07:14.452Z,86.00
2018-01-13T00:09:42.758Z,85.70
2018-01-13T00:12:10.350Z,85.60
2018-01-13T00:14:37.891Z,85.90
2018-01-13T00:17:05.478Z,85.60
2018-01-13T00:19:33.043Z,85.70
2018-01-13T00:22:02.121Z,86.20
2018-01-13T00:24:29.690Z,86.10
2018-01-13T00:26:57.286Z,86.10
2018-01-13T00:29:24.830Z,86.10
2018-01-13T00:31:53.168Z,86.10
2018-01-13T00:34:27.493Z,86.10
2018-01-13T00:36:55.047Z,86.00
2018-01-13T00:39:22.819Z,86.00
2018-01-13T00:41:50.387Z,86.10
2018-01-13T00:44:17.982Z,85.90
2018-01-13T00:46:46.292Z,85.80
2018-01-13T00:49:13.890Z,85.80
2018-01-13T00:51:41.482Z,85.70
2018-01-13T00:54:09.020Z,85.70
2018-01-13T00:56:36.613Z,85.60
2018-01-13T00:59:04.148Z,85.70
2018-01-13T01:01:32.496Z,85.60
2018-01-13T01:04:00.053Z,85.60
2018-01-13T01:06:27.651Z,85.30
2018-01-13T01:08:55.191Z,85.50
2018-01-13T01:11:22.748Z,85.30
2018-01-13T01:13:50.375Z,85.40
2018-01-13T01:16:17.915Z,85.40
2018-01-13T01:18:45.732Z,85.40
2018-01-13T01:21:13.287Z,85.20
2018-01-13T01:23:40.881Z,85.20
2018-01-13T01:26:08.428Z,85.40
2018-01-13T01:28:36.787Z,85.30
2018-01-13T01:31:04.379Z,85.30
2018-01-13T01:33:32.673Z,85.50
2018-01-13T01:36:00.274Z,85.50
2018-01-13T01:38:27.824Z,85.30
2018-01-13T01:40:55.442Z,85.10
2018-01-13T01:43:22.984Z,85.30
2018-01-13T01:45:51.110Z,85.60
2018-01-13T01:48:25.176Z,85.60
2018-01-13T01:50:53.523Z,85.30
2018-01-13T01:53:21.068Z,85.30
2018-01-13T01:55:48.708Z,85.50
2018-01-13T01:58:16.298Z,85.50
2018-01-13T02:00:43.862Z,85.30
2018-01-13T02:03:11.441Z,85.60
2018-01-13T02:05:38.977Z,85.60
2018-01-13T02:08:07.444Z,85.80
2018-01-13T02:10:34.984Z,85.60
2018-01-13T02:13:02.649Z,85.60
2018-01-13T02:15:30.210Z,85.80
2018-01-13T02:17:57.755Z,85.60
2018-01-13T02:20:25.349Z,85.70
2018-01-13T02:22:53.032Z,85.60
2018-01-13T02:25:20.625Z,85.60
2018-01-13T02:27:48.161Z,85.30
2018-01-13T02:30:16.513Z,85.70
2018-01-13T02:32:44.051Z,85.70
2018-01-13T02:35:14.140Z,85.60
2018-01-13T02:37:41.681Z,85.60
2018-01-13T02:40:09.973Z,85.60
2018-01-13T02:42:37.549Z,85.60
2018-01-13T02:45:05.112Z,85.30
2018-01-13T02:47:32.688Z,85.50
2018-01-13T02:50:00.239Z,85.40
2018-01-13T02:52:27.816Z,85.40
2018-01-13T02:54:55.410Z,85.40
2018-01-13T02:57:23.017Z,85.50
2018-01-13T02:59:50.550Z,85.40
2018-01-13T03:02:18.106Z,85.50
2018-01-13T03:04:45.708Z,85.00
2018-01-13T03:07:13.318Z,85.40
2018-01-13T03:09:40.917Z,85.50
2018-01-13T03:12:08.461Z,85.30
2018-01-13T03:14:36.172Z,85.30
2018-01-13T03:17:03.682Z,85.30
2018-01-13T03:19:31.214Z,85.10
2018-01-13T03:21:58.921Z,85.30
2018-01-13T03:24:26.481Z,85.30
2018-01-13T03:26:54.067Z,85.40
2018-01-13T03:29:23.552Z,85.30
2018-01-13T03:31:51.146Z,85.20
2018-01-13T03:34:18.693Z,85.00
2018-01-13T03:36:46.517Z,85.20
2018-01-13T03:39:14.070Z,85.40
2018-01-13T03:41:41.605Z,85.00
2018-01-13T03:44:09.177Z,85.90
2018-01-13T03:46:36.740Z,85.00
2018-01-13T03:49:04.969Z,84.90
2018-01-13T03:51:32.524Z,85.10
2018-01-13T03:54:00.601Z,85.40
2018-01-13T03:56:28.160Z,85.40
2018-01-13T03:58:55.699Z,85.30
2018-01-13T04:01:23.325Z,85.10
2018-01-13T04:03:51.050Z,85.20
2018-01-13T04:06:18.845Z,85.00
2018-01-13T04:08:46.380Z,85.00
2018-01-13T04:11:14.754Z,85.00
2018-01-13T04:13:42.344Z,84.80
2018-01-13T04:16:09.893Z,84.70
2018-01-13T04:18:37.513Z,84.50
2018-01-13T04:21:05.048Z,84.60
2018-01-13T04:23:33.345Z,84.60
2018-01-13T04:26:00.881Z,84.60
2018-01-13T04:28:28.475Z,84.50
2018-01-13T04:30:56.010Z,84.50
2018-01-13T04:33:23.980Z,84.40
2018-01-13T04:35:51.536Z,84.50
2018-01-13T04:38:19.071Z,84.30
2018-01-13T04:40:46.648Z,84.20
2018-01-13T04:43:14.180Z,84.10
2018-01-13T04:45:41.761Z,84.20
2018-01-13T04:48:09.297Z,84.20
2018-01-13T04:50:38.806Z,84.10
2018-01-13T04:53:06.532Z,84.00
2018-01-13T04:55:34.058Z,84.20
2018-01-13T04:58:01.620Z,84.10
2018-01-13T05:00:29.159Z,83.90
2018-01-13T05:02:56.740Z,84.10
2018-01-13T05:05:24.291Z,83.90
2018-01-13T05:07:52.277Z,84.00
2018-01-13T05:10:19.829Z,84.10
2018-01-13T05:12:47.377Z,84.10
2018-01-13T05:15:14.975Z,83.80
2018-01-13T05:17:44.020Z,84.20
2018-01-13T05:20:11.630Z,84.20
2018-01-13T05:22:39.177Z,84.30
2018-01-13T05:25:06.788Z,84.20
2018-01-13T05:27:34.342Z,84.20
2018-01-13T05:30:01.944Z,83.80
2018-01-13T05:32:29.482Z,84.20
2018-01-13T05:34:57.040Z,83.70
2018-01-13T05:37:24.651Z,84.10
2018-01-13T05:39:52.211Z,83.90
2018-01-13T05:42:19.808Z,84.30
2018-01-13T05:44:49.080Z,84.20
2018-01-13T05:47:16.678Z,84.30
2018-01-13T05:49:44.408Z,84.90
2018-01-13T05:52:12.720Z,84.10
2018-01-13T05:54:40.313Z,84.10
2018-01-13T05:57:08.013Z,83.90
2018-01-13T05:59:36.356Z,84.20
2018-01-13T06:02:03.879Z,84.20
2018-01-13T06:04:31.479Z,84.00
2018-01-13T06:06:59.035Z,83.90
2018-01-13T06:09:26.669Z,83.80
2018-01-13T06:11:54.219Z,83.90
2018-01-13T06:14:21.764Z,83.90
2018-01-13T06:16:49.347Z,83.50
2018-01-13T06:19:16.881Z,83.50
2018-01-13T06:21:44.456Z,83.40
2018-01-13T06:24:11.995Z,83.40
2018-01-13T06:26:40.599Z,83.50
2018-01-13T06:29:08.156Z,83.40
2018-01-13T06:31:35.696Z,83.30
2018-01-13T06:34:03.297Z,82.80
2018-01-13T06:36:30.847Z,83.10
2018-01-13T06:38:58.435Z,83.20
2018-01-13T06:41:25.968Z,83.20
2018-01-13T06:43:54.050Z,83.00
2018-01-13T06:46:21.598Z,82.90
2018-01-13T06:48:49.142Z,82.90
2018-01-13T06:51:16.729Z,82.50
2018-01-13T06:53:44.282Z,82.40
2018-01-13T06:56:11.865Z,81.70
2018-01-13T06:58:41.133Z,81.80
2018-01-13T07:01:08.727Z,81.80
2018-01-13T07:03:36.290Z,81.40
2018-01-13T07:06:05.667Z,81.40
2018-01-13T07:08:33.222Z,81.30
2018-01-13T07:11:00.769Z,81.10
2018-01-13T07:13:28.649Z,81.00
2018-01-13T07:15:56.186Z,80.90
2018-01-13T07:18:23.804Z,81.10
2018-01-13T07:20:51.392Z,81.00
2018-01-13T07:23:18.970Z,80.80
2018-01-13T07:25:46.510Z,80.40
2018-01-13T07:28:14.095Z,80.50
2018-01-13T07:30:41.645Z,80.70
2018-01-13T07:33:09.202Z,80.50
2018-01-13T07:35:36.865Z,80.00
2018-01-13T07:38:04.406Z,80.40
2018-01-13T07:40:32.000Z,80.20
2018-01-13T07:42:59.571Z,80.10
2018-01-13T07:45:27.176Z,79.80
2018-01-13T07:47:55.516Z,79.50
2018-01-13T07:50:23.145Z,79.50
2018-01-13T07:52:50.737Z,79.90
2018-01-13T07:55:18.284Z,79.20
2018-01-13T07:57:45.888Z,78.80
2018-01-13T08:00:14.198Z,79.00
2018-01-13T08:02:41.797Z,78.90
2018-01-13T08:05:09.350Z,78.90
2018-01-13T08:07:36.941Z,78.90
2018-01-13T08:10:05.255Z,79.30
2018-01-13T08:12:33.011Z,78.90
2018-01-13T08:15:00.682Z,78.90
2018-01-13T08:17:28.279Z,78.90
2018-01-13T08:19:55.921Z,78.90
2018-01-13T08:22:23.420Z,78.90
2018-01-13T08:24:51.020Z,78.90
2018-01-13T08:27:18.566Z,78.90
2018-01-13T08:29:46.331Z,78.60
2018-01-13T08:32:13.878Z,78.80
2018-01-13T08:34:41.528Z,78.80
2018-01-13T08:37:09.111Z,78.80
2018-01-13T08:39:36.652Z,78.90
2018-01-13T08:42:04.243Z,78.90
2018-01-13T08:44:31.802Z,78.80
2018-01-13T08:46:59.362Z,78.00
2018-01-13T08:49:26.961Z,79.10
2018-01-13T08:51:54.517Z,78.80
2018-01-13T08:54:22.122Z,78.50
2018-01-13T08:56:50.465Z,78.80
2018-01-13T08:59:18.070Z,78.80
2018-01-13T09:01:47.046Z,78.80
2018-01-13T09:04:14.594Z,78.60
2018-01-13T09:06:42.927Z,78.30
2018-01-13T09:09:10.484Z,78.20
2018-01-13T09:11:38.102Z,78.30
2018-01-13T09:14:05.657Z,78.20
2018-01-13T09:16:34.028Z,77.90
2018-01-13T09:19:01.573Z,77.90
2018-01-13T09:21:29.129Z,77.70
2018-01-13T09:23:56.701Z,78.00
2018-01-13T09:26:24.251Z,78.10
2018-01-13T09:28:51.822Z,77.90
2018-01-13T09:31:19.365Z,78.00
2018-01-13T09:33:47.326Z,78.30
2018-01-13T09:36:14.904Z,78.20
2018-01-13T09:38:42.450Z,78.20
2018-01-13T09:41:10.795Z,78.50
2018-01-13T09:43:39.209Z,78.40
2018-01-13T09:46:06.784Z,78.60
2018-01-13T09:48:34.326Z,78.10
2018-01-13T09:51:01.909Z,77.80
2018-01-13T09:53:29.457Z,77.50
2018-01-13T09:55:56.999Z,77.40
2018-01-13T09:58:24.605Z,77.50
2018-01-13T10:00:52.225Z,77.70
2018-01-13T10:03:20.616Z,77.20
2018-01-13T10:05:48.167Z,77.30
2018-01-13T10:08:15.760Z,77.30
2018-01-13T10:10:43.292Z,77.40
2018-01-13T10:13:10.834Z,76.50
2018-01-13T10:15:38.645Z,76.70
2018-01-13T10:18:06.960Z,77.00
2018-01-13T10:20:34.552Z,77.00
2018-01-13T10:23:02.114Z,77.30
2018-01-13T10:25:29.697Z,77.50
2018-01-13T10:27:58.013Z,77.10
2018-01-13T10:30:25.559Z,77.10
2018-01-13T10:32:53.161Z,76.40
2018-01-13T10:35:20.700Z,76.90
2018-01-13T10:37:48.289Z,76.20
2018-01-13T10:40:16.619Z,76.20
2018-01-13T10:42:44.217Z,76.20
2018-01-13T10:45:13.266Z,76.10
2018-01-13T10:47:40.869Z,76.00
2018-01-13T10:50:08.472Z,75.10
2018-01-13T10:52:36.047Z,76.10
2018-01-13T10:55:03.641Z,76.10
2018-01-13T10:57:31.185Z,76.10
2018-01-13T10:59:58.793Z,76.30
2018-01-13T11:02:27.104Z,76.30
2018-01-13T11:04:54.655Z,76.30
2018-01-13T11:07:22.396Z,76.20
2018-01-13T11:09:50.709Z,76.40
2018-01-13T11:12:18.304Z,76.40
2018-01-13T11:14:45.831Z,76.60
2018-01-13T11:17:13.389Z,76.70
2018-01-13T11:19:40.991Z,76.60
2018-01-13T11:22:10.099Z,76.40
2018-01-13T11:24:37.712Z,76.40
2018-01-13T11:27:05.281Z,76.50
2018-01-13T11:29:32.869Z,76.00
2018-01-13T11:32:00.445Z,76.20
2018-01-13T11:34:28.738Z,76.50
2018-01-13T11:36:56.494Z,76.50
2018-01-13T11:39:24.074Z,76.50
2018-01-13T11:41:51.689Z,76.40
2018-01-13T11:44:19.242Z,76.60
2018-01-13T11:46:47.611Z,76.50
2018-01-13T11:49:15.158Z,76.50
2018-01-13T11:51:43.157Z,77.00
2018-01-13T11:54:10.708Z,77.10
2018-01-13T11:56:38.264Z,77.00
2018-01-13T11:59:05.992Z,77.30
2018-01-13T12:01:33.653Z,77.50
2018-01-13T12:04:01.262Z,77.20
2018-01-13T12:06:28.829Z,77.30
2018-01-13T12:08:56.401Z,78.00
2018-01-13T12:11:24.760Z,77.70
2018-01-13T12:13:52.318Z,77.70
2018-01-13T12:16:19.900Z,77.60
2018-01-13T12:18:47.448Z,77.30
2018-01-13T12:21:15.800Z,77.90
2018-01-13T12:23:43.397Z,77.90
2018-01-13T12:26:10.973Z,77.60
2018-01-13T12:28:38.559Z,77.90
2018-01-13T12:31:06.117Z,77.70
2018-01-13T12:33:34.051Z,77.30
2018-01-13T12:36:01.637Z,77.70
2018-01-13T12:38:29.177Z,77.60
2018-01-13T12:40:56.787Z,77.50
2018-01-13T12:43:24.337Z,77.60
2018-01-13T12:45:52.015Z,77.40
2018-01-13T12:48:20.389Z,77.20
2018-01-13T12:50:48.470Z,77.20
2018-01-13T12:53:16.033Z,77.10
2018-01-13T12:55:45.133Z,77.20
2018-01-13T12:58:13.483Z,77.10
2018-01-13T13:00:41.058Z,77.10
2018-01-13T13:03:08.682Z,76.90
2018-01-13T13:05:36.236Z,77.10
2018-01-13T13:08:04.135Z,77.10
2018-01-13T13:10:31.731Z,77.00
2018-01-13T13:12:59.287Z,77.00
2018-01-13T13:15:27.643Z,77.10
2018-01-13T13:17:56.026Z,76.80
2018-01-13T13:20:23.629Z,76.80
2018-01-13T13:22:51.189Z,76.80
2018-01-13T13:25:19.200Z,76.80
2018-01-13T13:27:46.762Z,77.00
2018-01-13T13:30:14.336Z,77.00
2018-01-13T13:32:41.999Z,77.10
2018-01-13T13:35:09.666Z,77.00
2018-01-13T13:37:38.134Z,77.20
2018-01-13T13:40:05.686Z,77.70
2018-01-13T13:42:33.259Z,76.80
2018-01-13T13:45:00.870Z,77.10
2018-01-13T13:47:28.430Z,77.10
2018-01-13T13:49:56.032Z,76.80
2018-01-13T13:52:23.595Z,76.90
2018-01-13T13:54:51.209Z,77.10
2018-01-13T13:57:18.766Z,76.80
2018-01-13T13:59:50.348Z,76.80
2018-01-13T14:02:14.251Z,76.70
2018-01-13T14:04:42.575Z,76.80
2018-01-13T14:07:10.179Z,76.80
2018-01-13T14:09:39.450Z,76.80
2018-01-13T14:12:07.320Z,76.80
2018-01-13T14:14:34.887Z,76.90
2018-01-13T14:17:02.496Z,77.00
2018-01-13T14:19:30.091Z,76.80
2018-01-13T14:21:57.653Z,76.80
2018-01-13T14:24:25.260Z,77.00
2018-01-13T14:26:52.836Z,77.30
2018-01-13T14:29:21.196Z,77.00
2018-01-13T14:31:49.536Z,77.00
2018-01-13T14:34:17.412Z,77.10
2018-01-13T14:36:45.138Z,76.90
2018-01-13T14:39:12.699Z,77.00
2018-01-13T14:41:40.289Z,77.50
2018-01-13T14:44:07.845Z,76.80
2018-01-13T14:46:35.572Z,77.00
2018-01-13T14:49:03.406Z,76.80
2018-01-13T14:51:31.270Z,76.80
2018-01-13T14:53:58.814Z,76.80
2018-01-13T14:56:26.377Z,76.30
2018-01-13T14:58:53.985Z,76.70
2018-01-13T15:01:21.538Z,76.50
2018-01-13T15:03:49.922Z,76.50
2018-01-13T15:06:17.469Z,76.50
2018-01-13T15:08:45.823Z,76.40
2018-01-13T15:11:14.911Z,76.50
2018-01-13T15:13:42.896Z,76.50
2018-01-13T15:16:11.229Z,76.60
2018-01-13T15:18:38.786Z,76.50
2018-01-13T15:21:06.345Z,76.50
2018-01-13T15:23:33.885Z,77.00
2018-01-13T15:26:04.242Z,76.30
2018-01-13T15:28:31.992Z,76.10
2018-01-13T15:30:59.582Z,76.20
2018-01-13T15:33:27.154Z,76.10
2018-01-13T15:35:55.459Z,76.30
2018-01-13T15:38:23.790Z,76.40
2018-01-13T15:40:51.364Z,76.30
2018-01-13T15:43:18.967Z,76.20
2018-01-13T15:45:46.518Z,76.20
2018-01-13T15:48:14.158Z,76.00
2018-01-13T15:50:43.117Z,75.80
2018-01-13T15:53:10.977Z,75.80
2018-01-13T15:55:38.542Z,75.60
2018-01-13T15:58:06.250Z,75.50
2018-01-13T16:00:34.613Z,75.20
2018-01-13T16:03:02.180Z,75.20
2018-01-13T16:05:30.573Z,75.30
2018-01-13T16:07:58.163Z,75.30
2018-01-13T16:10:25.773Z,75.00
2018-01-13T16:12:54.099Z,74.90
2018-01-13T16:15:21.980Z,74.40
2018-01-13T16:17:49.529Z,74.30
2018-01-13T16:20:17.119Z,74.30
2018-01-13T16:22:44.739Z,73.50
2018-01-13T16:25:12.321Z,73.90
2018-01-13T16:27:39.924Z,73.80
2018-01-13T16:30:07.489Z,73.70
2018-01-13T16:32:36.132Z,73.20
2018-01-13T16:35:03.695Z,73.20
2018-01-13T16:37:31.270Z,73.20
2018-01-13T16:39:59.678Z,73.10
2018-01-13T16:42:27.230Z,73.10
2018-01-13T16:44:55.877Z,73.30
2018-01-13T16:47:23.445Z,73.20
2018-01-13T16:49:51.014Z,73.50
2018-01-13T16:52:18.668Z,73.70
2018-01-13T16:54:46.233Z,73.70
2018-01-13T16:57:15.325Z,73.70
2018-01-13T16:59:42.891Z,73.70
2018-01-13T17:02:10.484Z,73.50
2018-01-13T17:04:38.054Z,73.60
2018-01-13T17:07:06.078Z,74.20
2018-01-13T17:09:33.644Z,73.90
2018-01-13T17:12:01.201Z,73.60
2018-01-13T17:14:28.812Z,73.50
2018-01-13T17:16:56.398Z,73.70
2018-01-13T17:19:23.976Z,73.70
2018-01-13T17:21:51.537Z,73.70
2018-01-13T17:24:20.633Z,73.90
2018-01-13T17:26:48.962Z,73.70
2018-01-13T17:29:17.132Z,73.70
2018-01-13T17:31:45.430Z,73.40
2018-01-13T17:34:12.990Z,73.40
2018-01-13T17:36:40.580Z,73.50
2018-01-13T17:39:08.156Z,73.50
2018-01-13T17:41:36.508Z,73.30
2018-01-13T17:44:04.069Z,73.40
2018-01-13T17:46:32.157Z,72.90
2018-01-13T17:49:00.810Z,72.60
2018-01-13T17:51:28.378Z,72.70
2018-01-13T17:53:57.114Z,73.00
2018-01-13T17:56:24.682Z,72.60
2018-01-13T17:58:52.302Z,72.50
2018-01-13T18:01:19.935Z,72.80
2018-01-13T18:03:47.879Z,72.80
2018-01-13T18:06:15.461Z,72.40
2018-01-13T18:08:43.051Z,72.60
2018-01-13T18:11:10.640Z,72.50
2018-01-13T18:13:38.205Z,72.30
2018-01-13T18:16:05.789Z,72.10
2018-01-13T18:18:33.338Z,71.80
2018-01-13T18:21:01.252Z,71.90
2018-01-13T18:23:28.822Z,72.00
2018-01-13T18:25:56.405Z,71.90
2018-01-13T18:28:24.014Z,71.70
2018-01-13T18:30:51.724Z,71.40
2018-01-13T18:33:20.210Z,71.50
2018-01-13T18:35:48.591Z,71.40
2018-01-13T18:38:16.515Z,71.40
2018-01-13T18:40:44.190Z,71.50
2018-01-13T18:43:11.735Z,71.50
2018-01-13T18:45:39.334Z,71.50
2018-01-13T18:48:08.618Z,72.10
2018-01-13T18:50:37.018Z,72.70
2018-01-13T18:53:04.574Z,72.40
2018-01-13T18:55:33.224Z,72.50
2018-01-13T18:58:00.801Z,73.10
2018-01-13T19:00:28.387Z,72.30
2018-01-13T19:02:56.346Z,72.50
2018-01-13T19:05:24.674Z,72.50
2018-01-13T19:07:52.282Z,72.50
2018-01-13T19:10:20.597Z,72.90
2018-01-13T19:12:48.458Z,72.90
2018-01-13T19:15:16.021Z,73.10
2018-01-13T19:17:43.588Z,73.20
2018-01-13T19:20:11.197Z,73.30
2018-01-13T19:22:39.517Z,73.60
2018-01-13T19:25:07.102Z,73.10
2018-01-13T19:27:34.716Z,73.10
2018-01-13T19:30:02.638Z,73.70
2018-01-13T19:32:30.213Z,72.90
2018-01-13T19:34:57.778Z,73.00
2018-01-13T19:37:26.176Z,73.30
2018-01-13T19:39:54.443Z,73.30
2018-01-13T19:42:22.830Z,73.40
2018-01-13T19:44:50.389Z,73.40
2018-01-13T19:47:18.858Z,73.40
2018-01-13T19:49:47.356Z,73.30
2018-01-13T19:52:15.375Z,73.30
2018-01-13T19:54:42.948Z,73.10
2018-01-13T19:57:10.503Z,73.40
2018-01-13T19:59:38.168Z,73.10
2018-01-13T20:02:06.384Z,73.20
2018-01-13T20:04:34.765Z,73.10
2018-01-13T20:07:02.359Z,72.90
2018-01-13T20:09:30.234Z,73.10
2018-01-13T20:11:57.844Z,73.10
2018-01-13T20:14:25.476Z,73.00
2018-01-13T20:16:53.091Z,73.10
2018-01-13T20:19:20.644Z,72.80
2018-01-13T20:21:48.404Z,73.10
2018-01-13T20:24:15.967Z,73.00
2018-01-13T20:26:43.882Z,72.80
2018-01-13T20:29:11.553Z,72.80
2018-01-13T20:31:40.780Z,72.90
2018-01-13T20:34:08.362Z,72.90
2018-01-13T20:36:35.927Z,72.70
2018-01-13T20:39:03.522Z,72.70
2018-01-13T20:41:31.075Z,72.80
2018-01-13T20:43:59.089Z,72.70
2018-01-13T20:46:26.638Z,72.80
2018-01-13T20:48:54.964Z,72.70
2018-01-13T20:51:22.589Z,72.70
2018-01-13T20:53:50.163Z,72.90
2018-01-13T20:56:17.763Z,73.20
2018-01-13T20:58:45.346Z,73.00
2018-01-13T21:01:12.951Z,72.90
2018-01-13T21:03:40.505Z,72.70
2018-01-13T21:06:08.366Z,72.80
2018-01-13T21:08:35.920Z,72.90
2018-01-13T21:11:03.538Z,73.10
2018-01-13T21:13:31.149Z,73.30
2018-01-13T21:15:58.723Z,73.30
2018-01-13T21:18:26.961Z,73.30
2018-01-13T21:20:54.909Z,73.30
2018-01-13T21:23:23.098Z,73.10
2018-01-13T21:25:51.216Z,73.20
2018-01-13T21:28:18.783Z,73.40
2018-01-13T21:30:46.385Z,73.20
2018-01-13T21:33:14.708Z,73.30
2018-01-13T21:35:42.618Z,73.40
2018-01-13T21:38:11.493Z,73.10
2018-01-13T21:40:39.400Z,73.00
2018-01-13T21:43:07.958Z,72.80
2018-01-13T21:45:35.541Z,73.00
2018-01-13T21:48:03.133Z,72.90
2018-01-13T21:50:30.699Z,72.80
2018-01-13T21:52:58.306Z,72.90
2018-01-13T21:55:26.633Z,72.90
2018-01-13T21:57:54.654Z,72.90
2018-01-13T22:00:22.202Z,72.80
2018-01-13T22:02:49.767Z,72.80
2018-01-13T22:05:17.372Z,72.90
2018-01-13T22:07:44.942Z,72.70
2018-01-13T22:10:12.942Z,72.70
2018-01-13T22:12:41.247Z,72.90
2018-01-13T22:15:09.567Z,73.00
2018-01-13T22:17:37.217Z,73.00
2018-01-13T22:20:04.774Z,73.00
2018-01-13T22:22:32.393Z,72.90
2018-01-13T22:25:00.915Z,73.40
2018-01-13T22:27:28.522Z,73.40
2018-01-13T22:29:56.107Z,73.30
2018-01-13T22:32:24.000Z,73.40
2018-01-13T22:34:51.603Z,73.40
2018-01-13T22:37:19.180Z,73.30
2018-01-13T22:39:46.781Z,73.30
2018-01-13T22:42:14.345Z,73.30
2018-01-13T22:44:41.945Z,73.30
2018-01-13T22:47:09.510Z,73.60
2018-01-13T22:49:37.162Z,73.50
2018-01-13T22:52:04.737Z,73.40
2018-01-13T22:54:32.698Z,73.30
2018-01-13T22:57:00.264Z,73.30
2018-01-13T22:59:27.817Z,73.40
2018-01-13T23:01:55.421Z,74.00
2018-01-13T23:04:24.792Z,74.00
2018-01-13T23:06:52.371Z,74.10
2018-01-13T23:09:19.970Z,74.60
2018-01-13T23:11:47.831Z,74.20
2018-01-13T23:14:15.391Z,74.00
2018-01-13T23:16:42.947Z,74.10
2018-01-13T23:19:10.527Z,74.00
2018-01-13T23:21:38.083Z,74.40
2018-01-13T23:24:05.696Z,74.40
2018-01-13T23:26:33.239Z,74.70
2018-01-13T23:29:00.843Z,74.70
2018-01-13T23:31:28.384Z,74.40
2018-01-13T23:33:56.300Z,74.60
2018-01-13T23:36:23.863Z,74.60
2018-01-13T23:38:51.423Z,74.70
2018-01-13T23:41:19.030Z,74.70
2018-01-13T23:43:46.612Z,74.60
2018-01-13T23:46:14.397Z,74.70
2018-01-13T23:48:41.949Z,74.70
2018-01-13T23:51:09.818Z,74.70
2018-01-13T23:53:37.391Z,74.70
2018-01-13T23:56:05.145Z,74.50
2018-01-13T23:58:33.704Z,74.60
